logo tempoitalia

Diretta Meteo Szolnok, Ungherialunedì 31 agosto ore 06:45

Mappa
Sereno 18 °C Sereno 24 Ore: T.min 16 T.max 32
Ponente Nord Km/h 0 Punto di rugiada: 12 °C Umidità: 67% Visibilità: 10 Km
Il sole sorge alle: 05:57 Il sole tramonta alle: 19:21
31 Agosto 2026 06:45 tempo osservato: Sereno Sereno 18 67 1016 vento: Nord N 0
31 Agosto 2026 06:15 tempo osservato: Sereno Sereno 16 72 1016 vento: Nord N 5.5
31 Agosto 2026 05:45 tempo osservato: Sereno Sereno 16 72 1015 vento: Nord N 3.7
31 Agosto 2026 05:15 tempo osservato: Sereno Sereno 17 63 1015 vento: Nord N 3.7
31 Agosto 2026 04:45 tempo osservato: Sereno Sereno 17 59 1015 vento: Nord N 0
31 Agosto 2026 04:15 tempo osservato: Sereno Sereno 17 63 1015 vento: Nord N 3.7
31 Agosto 2026 01:45 tempo osservato: Sereno Sereno 19 63 1016 vento: Nord N 1.8
31 Agosto 2026 01:15 tempo osservato: Sereno Sereno 19 63 1016 vento: Nord N 3.7
31 Agosto 2026 00:45 tempo osservato: Sereno Sereno 19 63 1016 vento: Nord N 3.7
31 Agosto 2026 00:15 tempo osservato: Sereno Sereno 20 59 1016 vento: Nord N 1.8
30 Agosto 2026 23:45 tempo osservato: Sereno Sereno 21 52 1016 vento: Nord N 3.7
30 Agosto 2026 23:15 tempo osservato: Sereno Sereno 22 49 1016 vento: Nord N 5.5
30 Agosto 2026 22:45 tempo osservato: Sereno Sereno 22 49 1016 vento: Nord N 3.7
30 Agosto 2026 22:15 tempo osservato: Sereno Sereno 22 53 1015 vento: Nord N 3.7
30 Agosto 2026 21:45 tempo osservato: Sereno Sereno 23 46 1015 vento: Nord N 0
30 Agosto 2026 21:15 tempo osservato: Sereno Sereno 24 43 1015 vento: Nord N 1.8
30 Agosto 2026 20:45 tempo osservato: Sereno Sereno 25 41 1015 vento: Nord N 1.8
30 Agosto 2026 20:15 tempo osservato: Sereno Sereno 25 44 1015 vento: Nord N 3.7
30 Agosto 2026 19:45 tempo osservato: Sereno Sereno 27 39 1015 vento: Nord N 1.8
30 Agosto 2026 19:15 tempo osservato: Sereno Sereno 29 32 1014 vento: Nord N 3.7
30 Agosto 2026 18:45 tempo osservato: Sereno Sereno 31 29 1014 vento: Nord N 5.5
30 Agosto 2026 18:15 tempo osservato: Sereno Sereno 31 27 1015 vento: Nord N 5.5
30 Agosto 2026 17:45 tempo osservato: Sereno Sereno 31 27 1015 vento: Nord S 7.4
30 Agosto 2026 17:15 tempo osservato: Sereno Sereno 32 25 1015 vento: Nord N 5.5
30 Agosto 2026 16:45 tempo osservato: Sereno Sereno 32 25 1015 vento: Nord N 5.5
30 Agosto 2026 16:15 tempo osservato: Sereno Sereno 32 25 1015 vento: Nord O/NO 7.4
30 Agosto 2026 15:45 tempo osservato: Sereno Sereno 32 25 1015 vento: Nord N 3.7
30 Agosto 2026 15:15 tempo osservato: Sereno Sereno 32 25 1015 vento: Nord N 5.5
30 Agosto 2026 14:45 tempo osservato: Sereno Sereno 31 27 1016 vento: Nord N 9.3
30 Agosto 2026 14:15 tempo osservato: Sereno Sereno 31 25 1016 vento: Nord O 9.3
30 Agosto 2026 13:45 tempo osservato: Sereno Sereno 31 27 1016 vento: Nord N 9.3
30 Agosto 2026 13:15 tempo osservato: Sereno Sereno 31 25 1016 vento: Nord N 9.3
30 Agosto 2026 12:45 tempo osservato: Sereno Sereno 30 28 1016 vento: Nord N/NE 7.4
30 Agosto 2026 12:15 tempo osservato: Sereno Sereno 29 32 1017 vento: Nord N 9.3
30 Agosto 2026 11:45 tempo osservato: Sereno Sereno 28 37 1017 vento: Nord N/NO 9.3
30 Agosto 2026 11:15 tempo osservato: Sereno Sereno 27 42 1017 vento: Nord N/NO 9.3
30 Agosto 2026 10:45 tempo osservato: Sereno Sereno 26 47 1017 vento: Nord N/NO 9.3
30 Agosto 2026 10:15 tempo osservato: Sereno Sereno 26 47 1017 vento: Nord N 5.5
30 Agosto 2026 09:45 tempo osservato: Sereno Sereno 24 53 1017 vento: Nord NO 7.4
30 Agosto 2026 09:15 tempo osservato: Sereno Sereno 23 60 1017 vento: Nord N 5.5
30 Agosto 2026 08:45 tempo osservato: Sereno Sereno 22 60 1017 vento: Nord N 7.4
30 Agosto 2026 08:15 tempo osservato: Sereno Sereno 21 60 1017 vento: Nord O/NO 7.4
30 Agosto 2026 07:45 tempo osservato: Sereno Sereno 21 60 1017 vento: Nord N 1.8